• Join FlightAware (Why Join?)
  • Login
  • US Flag GB Flag 
14:50 EDT


 

Airport Tracker/Info


-or-


 

Live Flight TrackerFlight Track Log ✈ AMF1026 ✈ 25-Apr-2013 ✈ KALB - KCVG

Flight Track Log - Related Links

Times and Time Zones

All times are in EDT time to prevent confusion due to time zone crossing. See the AMF1026 flight status page for this flight to view local times or setup timezone preferences in your user account.

Time Position Orientation Groundspeed Altitude Reporting Facility
EDT Latitude Longitude Course Direction KTS MPH feet Rate Location/Type
21:00 42.7672 -73.8061 359° North 163 188 1,000  Level Boston Center
21:01 42.7839 -73.8064 359° North 172 198 1,800 1,740 Climbing Boston Center
21:02 42.7875 -73.8661 275° West 195 224 3,500 1,740 Climbing Boston Center
21:03 42.7553 -73.9389 239° Southwest 201 231 5,500 1,680 Climbing Boston Center
21:04 42.7481 -74.0122 262° West 207 238 7,100 1,560 Climbing Boston Center
21:05 42.7469 -74.0856 269° West 202 232 8,700 1,500 Climbing Boston Center
21:06 42.7439 -74.1533 267° West 197 227 10,200 1,500 Climbing Boston Center
21:07 42.7469 -74.2325 273° West 197 227 12,000 1,500 Climbing Boston Center
21:08 42.7433 -74.3144 267° West 197 227 13,600 1,440 Climbing Boston Center
21:09 42.7194 -74.3786 243° Southwest 197 227 14,900 1,140 Climbing Boston Center
21:10 42.6892 -74.4344 234° Southwest 192 221 15,900 540 Climbing Boston Center
21:11 42.6608 -74.5039 241° Southwest 199 229 16,000  Climbing Boston Center
21:12 42.6386 -74.5822 249° West 226 260 16,000  Level Boston Center
21:13 42.6183 -74.6664 252° West 234 269 16,000  Level Boston Center
21:14 42.5978 -74.7531 252° West 240 276 16,000  Level Boston Center
21:15 42.5792 -74.8481 255° West 251 289 16,000  Level Boston Center
21:16 42.5567 -74.9292 249° West 251 289 16,000  Level Boston Center
21:17 42.5014 -74.9775 213° Southwest 227 261 16,000  Level Boston Center
21:18 42.4381 -75.0031 197° South 232 267 16,000  Level Boston Center
21:19 42.3708 -75.0283 196° South 237 273 16,000  Level Boston Center
21:20 42.3078 -75.0539 197° South 244 281 16,000 -60 Level Boston Center
21:23 42.1542 -75.1094 195° South 253 291 15,900 -60 Descending New York Center
21:24 42.0825 -75.1328 194° South 248 285 15,900  Level New York Center
21:25 42.0150 -75.1589 196° South 248 285 15,900  Level New York Center
21:26 41.9475 -75.1825 195° South 248 285 15,900  Level New York Center
21:27 41.8886 -75.2036 195° South 248 285 15,900  Level New York Center
21:28 41.8228 -75.2325 198° South 248 285 15,900  Level New York Center
21:29 41.7544 -75.2808 208° Southwest 253 291 16,000  Climbing New York Center
21:30 41.6967 -75.3214 208° Southwest 253 291 16,000  Level New York Center
21:31 41.6367 -75.3617 207° Southwest 248 285 16,000  Level New York Center
21:32 41.5833 -75.3997 208° Southwest 248 285 16,000  Level New York Center
21:33 41.5256 -75.4400 208° Southwest 248 285 16,000  Level New York Center
21:34 41.4589 -75.4906 210° Southwest 253 291 16,000  Level New York Center
21:35 41.4028 -75.5392 213° Southwest 253 291 16,000  Level New York Center
21:36 41.3489 -75.5881 214° Southwest 248 285 16,000  Level New York Center
21:37 41.3008 -75.6397 219° Southwest 242 278 16,000  Level New York Center
21:38 41.2625 -75.7086 234° Southwest 237 273 16,000  Level New York Center
21:39 41.2300 -75.7919 243° Southwest 237 273 16,000  Level New York Center
21:40 41.1975 -75.8694 241° Southwest 237 273 16,000  Level New York Center
21:41 41.1589 -75.9436 235° Southwest 242 278 16,000  Level New York Center
21:42 41.1228 -76.0042 232° Southwest 248 285 16,000  Level New York Center
21:43 41.0822 -76.0756 233° Southwest 248 285 16,000  Level New York Center
21:44 41.0369 -76.1517 232° Southwest 248 285 16,000  Level New York Center
21:45 41.0003 -76.2231 236° Southwest 243 280 16,000  Level New York Center
21:46 40.9656 -76.3000 239° Southwest 243 280 16,000  Level New York Center
21:47 40.9392 -76.3719 244° Southwest 243 280 16,000  Level New York Center
21:48 40.9142 -76.4633 250° West 238 274 16,000  Level New York Center
21:49 40.8914 -76.5439 250° West 243 280 16,000  Level New York Center
21:51 40.8497 -76.7106 252° West 243 280 16,000  Level New York Center
21:52 40.8167 -76.7897 241° Southwest 243 280 16,000  Level New York Center
21:53 40.7919 -76.8672 247° West 243 280 16,000  Level New York Center
21:54 40.7753 -76.9453 254° West 238 274 16,000  Level New York Center
21:55 40.7725 -77.0381 268° West 238 274 16,000  Level New York Center
21:56 40.7597 -77.1219 259° West 238 274 16,000  Level New York Center
21:57 40.7450 -77.2028 257° West 238 274 16,000  Level New York Center
21:58 40.7339 -77.3331 264° West 235 270 16,000  Level Cleveland Center
21:59 40.7278 -77.4183 265° West 240 276 16,000 -60 Level Cleveland Center
22:00 40.7178 -77.5067 262° West 240 276 15,900 -60 Descending Cleveland Center
22:01 40.7075 -77.5864 260° West 240 276 15,900  Level Cleveland Center
22:02 40.6931 -77.6719 257° West 240 276 15,900  Level Cleveland Center
22:03 40.6678 -77.7525 248° West 240 276 15,900  Level Cleveland Center
22:04 40.6364 -77.8278 241° Southwest 240 276 15,900  Level Cleveland Center
22:05 40.6028 -77.9058 240° Southwest 240 276 15,900  Level Cleveland Center
22:06 40.5733 -77.9808 243° Southwest 245 282 15,900  Level Cleveland Center
22:07 40.5419 -78.0722 246° West 250 288 15,900  Level Cleveland Center
22:08 40.5164 -78.1497 247° West 244 281 15,900  Level Cleveland Center
22:09 40.4911 -78.2325 248° West 239 275 15,900  Level Cleveland Center
22:10 40.4697 -78.3122 251° West 239 275 15,900  Level Cleveland Center
22:11 40.4483 -78.3922 251° West 239 275 15,900  Level Cleveland Center
22:12 40.4292 -78.4747 253° West 234 269 15,900  Level Cleveland Center
22:13 40.4056 -78.5572 249° West 234 269 15,900  Level Cleveland Center
22:14 40.3778 -78.6372 246° West 234 269 15,900  Level Cleveland Center
22:15 40.3500 -78.7142 245° Southwest 239 275 15,900  Level Cleveland Center
22:16 40.3264 -78.7967 249° West 239 275 15,900  Level Cleveland Center
22:17 40.3047 -78.8789 251° West 239 275 15,900  Level Cleveland Center
22:18 40.3036 -78.9633 269° West 233 268 15,900  Level Cleveland Center
22:19 40.3069 -79.0503 273° West 233 268 15,900  Level Cleveland Center
22:20 40.3061 -79.1347 269° West 233 268 15,900  Level Cleveland Center
22:21 40.3008 -79.2219 265° West 233 268 15,900  Level Cleveland Center
22:22 40.2994 -79.2900 268° West 233 268 15,900  Level Cleveland Center
22:23 40.3006 -79.3881 271° West 233 268 16,000  Climbing Cleveland Center
22:24 40.2994 -79.4753 269° West 233 268 16,000  Level Cleveland Center
22:25 40.2981 -79.5594 269° West 233 268 16,000  Level Cleveland Center
22:26 40.2947 -79.6439 267° West 233 268 16,000  Level Cleveland Center
22:27 40.2911 -79.7311 267° West 233 268 16,000  Level Cleveland Center
22:28 40.2878 -79.8156 267° West 233 268 16,000  Level Cleveland Center
22:29 40.2819 -79.9000 265° West 233 268 16,000  Level Cleveland Center
22:30 40.2803 -79.9844 269° West 238 274 16,000  Level Cleveland Center
22:31 40.2828 -80.0742 272° West 233 268 16,000  Level Cleveland Center
22:32 40.2811 -80.1586 269° West 233 268 16,000  Level Cleveland Center
22:33 40.2792 -80.2456 268° West 233 268 16,000  Level Cleveland Center
22:34 40.2794 -80.3244 270° West 233 268 16,000  Level Cleveland Center
22:35 40.2942 -80.4089 283° West 233 268 16,000  Level Cleveland Center
22:36 40.2986 -80.4906 274° West 233 268 16,000  Level Cleveland Center
22:37 40.3028 -80.5722 274° West 233 268 16,000  Level Cleveland Center
22:38 40.3028 -80.6592 270° West 233 268 16,000  Level Cleveland Center
22:39 40.2942 -80.7436 262° West 233 268 16,000  Level Cleveland Center
22:40 40.2775 -80.8281 256° West 233 268 16,000  Level Cleveland Center
22:41 40.2625 -80.9094 256° West 238 274 16,000  Level Cleveland Center
22:42 40.2436 -80.9939 254° West 238 274 16,000  Level Cleveland Center
22:43 40.2308 -81.0808 259° West 243 280 16,000  Level Cleveland Center
22:44 40.2261 -81.1650 266° West 243 280 16,000  Level Cleveland Center
22:45 40.2236 -81.2519 268° West 237 273 16,000  Level Cleveland Center
22:46 40.2231 -81.3361 270° West 237 273 16,000  Level Cleveland Center
22:47 40.2308 -81.4181 277° West 237 273 16,000  Level Cleveland Center
22:49 40.2100 -81.5806 261° West 238 274 16,000  Level Indianapolis Center
22:50 40.1969 -81.6814 260° West 239 275 16,000  Level Indianapolis Center
22:51 40.1844 -81.7675 259° West 239 275 16,000  Level Indianapolis Center
22:52 40.1731 -81.8572 261° West 242 278 16,000  Level Indianapolis Center
22:53 40.1622 -81.9439 261° West 242 278 16,000  Level Indianapolis Center
22:54 40.1514 -82.0311 261° West 239 275 16,000  Level Indianapolis Center
22:55 40.1383 -82.1175 259° West 241 277 16,000  Level Indianapolis Center
22:56 40.1267 -82.2058 260° West 243 280 16,000  Level Indianapolis Center
22:57 40.1139 -82.2919 259° West 241 277 16,000  Level Indianapolis Center
22:58 40.0703 -82.3669 233° Southwest 254 292 16,000  Level Indianapolis Center
22:59 40.0306 -82.4422 235° Southwest 252 290 16,000  Level Indianapolis Center
23:00 39.9906 -82.5189 236° Southwest 253 291 16,000  Level Indianapolis Center
23:01 39.9553 -82.5967 239° Southwest 250 288 16,000  Level Indianapolis Center
23:02 39.9236 -82.6781 243° Southwest 250 288 16,000  Level Indianapolis Center
23:03 39.8922 -82.7583 243° Southwest 248 285 16,000  Level Indianapolis Center
23:04 39.8636 -82.8406 246° West 247 284 16,000  Level Indianapolis Center
23:05 39.8408 -82.9247 251° West 246 283 16,000  Level Indianapolis Center
23:06 39.8164 -83.0072 249° West 243 280 16,000  Level Indianapolis Center
23:07 39.7894 -83.0903 247° West 245 282 16,000  Level Indianapolis Center
23:09 39.7561 -83.1697 241° Southwest 247 284 16,000  Level Indianapolis Center
23:10 39.7150 -83.2464 235° Southwest 252 290 16,000  Level Indianapolis Center
23:11 39.6686 -83.3189 230° Southwest 256 295 16,000  Level Indianapolis Center
23:12 39.6233 -83.3928 232° Southwest 256 295 16,000  Level Indianapolis Center
23:13 39.5856 -83.4711 238° Southwest 253 291 16,000 -60 Level Indianapolis Center
23:14 39.5556 -83.5533 245° Southwest 251 289 15,900 -660 Descending Indianapolis Center
23:15 39.5244 -83.6356 244° Southwest 252 290 14,700 -1,380 Descending Indianapolis Center
23:16 39.4950 -83.7175 245° Southwest 249 287 13,200 -1,500 Descending Indianapolis Center
23:17 39.4617 -83.8122 246° West 244 281 11,700 -1,080 Descending Indianapolis Center
23:18 39.4275 -83.8878 240° Southwest 243 280 11,000 -360 Descending Indianapolis Center
23:19 39.3886 -83.9661 237° Southwest 254 292 11,000 -120 Level Indianapolis Center
23:20 39.3433 -84.0397 232° Southwest 259 298 10,800 -840 Descending Indianapolis Center
23:21 39.2947 -84.1078 227° Southwest 256 295 9,400 -1,320 Descending Indianapolis Center
23:22 39.2481 -84.1719 227° Southwest 244 281 8,200 -1,320 Descending Indianapolis Center
23:23 39.2044 -84.2353 228° Southwest 239 275 6,700 -1,440 Descending Indianapolis Center
23:24 39.1647 -84.2944 229° Southwest 225 259 5,300 -1,440 Descending Indianapolis Center
23:25 39.1264 -84.3519 229° Southwest 215 247 3,800 -1,440 Descending Indianapolis Center
23:25 39.1000 -84.3833 223° Southwest 217 250 3,200 -660 Descending Cincinnati TRACON
23:26 39.0833 -84.4333 247° West 210 242 3,000 -120 Descending Cincinnati TRACON
23:27 39.0500 -84.5000 237° Southwest 209 241 3,000 -300 Level Cincinnati TRACON
23:28 39.0167 -84.5500 229° Southwest 197 227 2,400 -480 Descending Cincinnati TRACON
23:29 39.0000 -84.6167 252° West 147 169 2,100 -360 Descending Cincinnati TRACON
23:30 39.0000 -84.6500 270° West 117 135 1,700 -480 Descending Cincinnati TRACON
23:31 39.0167 -84.6667 322° Northwest 107 123 1,200 -540 Descending Cincinnati TRACON
23:33 39.0333 -84.6667 247° West  Level FlightAware Approximate